sensor_id;sensor_type;location;lat;lon;timestamp;P1;durP1;ratioP1;P2;durP2;ratioP2
85445;SDS011;75839;50.982;7.040;2024-02-15T00:00:02;5.45;;;1.88;;
85445;SDS011;75839;50.982;7.040;2024-02-15T00:02:29;3.42;;;2.00;;
85445;SDS011;75839;50.982;7.040;2024-02-15T00:04:55;2.90;;;1.63;;
85445;SDS011;75839;50.982;7.040;2024-02-15T00:07:21;3.65;;;1.88;;
85445;SDS011;75839;50.982;7.040;2024-02-15T00:09:48;3.60;;;2.33;;
85445;SDS011;75839;50.982;7.040;2024-02-15T00:12:13;5.25;;;2.20;;
85445;SDS011;75839;50.982;7.040;2024-02-15T00:14:41;3.70;;;2.20;;
85445;SDS011;75839;50.982;7.040;2024-02-15T00:17:07;3.72;;;2.30;;
85445;SDS011;75839;50.982;7.040;2024-02-15T00:19:33;3.92;;;2.00;;
85445;SDS011;75839;50.982;7.040;2024-02-15T00:21:59;6.25;;;2.38;;
85445;SDS011;75839;50.982;7.040;2024-02-15T00:24:24;5.45;;;2.08;;
85445;SDS011;75839;50.982;7.040;2024-02-15T00:26:50;4.60;;;2.10;;
85445;SDS011;75839;50.982;7.040;2024-02-15T00:29:16;6.68;;;2.38;;
85445;SDS011;75839;50.982;7.040;2024-02-15T00:31:43;3.10;;;1.88;;
85445;SDS011;75839;50.982;7.040;2024-02-15T00:34:08;3.95;;;2.03;;
85445;SDS011;75839;50.982;7.040;2024-02-15T00:36:34;4.15;;;2.15;;
85445;SDS011;75839;50.982;7.040;2024-02-15T00:38:59;4.47;;;1.95;;
85445;SDS011;75839;50.982;7.040;2024-02-15T00:41:25;3.75;;;1.95;;
85445;SDS011;75839;50.982;7.040;2024-02-15T00:43:51;3.70;;;2.13;;
85445;SDS011;75839;50.982;7.040;2024-02-15T00:46:16;3.38;;;2.13;;
85445;SDS011;75839;50.982;7.040;2024-02-15T00:48:43;5.82;;;2.45;;
85445;SDS011;75839;50.982;7.040;2024-02-15T00:51:09;6.55;;;2.30;;
85445;SDS011;75839;50.982;7.040;2024-02-15T00:53:34;8.55;;;2.33;;
85445;SDS011;75839;50.982;7.040;2024-02-15T00:56:00;5.25;;;2.30;;
85445;SDS011;75839;50.982;7.040;2024-02-15T00:58:26;5.20;;;2.25;;
85445;SDS011;75839;50.982;7.040;2024-02-15T01:00:52;4.53;;;2.10;;
85445;SDS011;75839;50.982;7.040;2024-02-15T01:03:18;4.75;;;1.80;;
85445;SDS011;75839;50.982;7.040;2024-02-15T01:05:46;7.85;;;2.75;;
85445;SDS011;75839;50.982;7.040;2024-02-15T01:08:11;5.45;;;1.98;;
85445;SDS011;75839;50.982;7.040;2024-02-15T01:10:37;4.13;;;2.45;;
85445;SDS011;75839;50.982;7.040;2024-02-15T01:13:03;5.57;;;2.45;;
85445;SDS011;75839;50.982;7.040;2024-02-15T01:15:28;3.30;;;1.92;;
85445;SDS011;75839;50.982;7.040;2024-02-15T01:17:54;4.30;;;2.15;;
85445;SDS011;75839;50.982;7.040;2024-02-15T01:20:20;4.45;;;2.30;;
85445;SDS011;75839;50.982;7.040;2024-02-15T01:22:47;5.30;;;2.17;;
85445;SDS011;75839;50.982;7.040;2024-02-15T01:25:13;5.93;;;2.47;;
85445;SDS011;75839;50.982;7.040;2024-02-15T01:27:40;6.95;;;2.28;;
85445;SDS011;75839;50.982;7.040;2024-02-15T01:30:06;7.20;;;3.08;;
85445;SDS011;75839;50.982;7.040;2024-02-15T01:32:33;5.68;;;2.28;;
85445;SDS011;75839;50.982;7.040;2024-02-15T01:34:59;4.57;;;2.28;;
85445;SDS011;75839;50.982;7.040;2024-02-15T01:37:24;7.07;;;2.53;;
85445;SDS011;75839;50.982;7.040;2024-02-15T01:39:51;5.40;;;2.17;;
85445;SDS011;75839;50.982;7.040;2024-02-15T01:42:17;6.78;;;2.47;;
85445;SDS011;75839;50.982;7.040;2024-02-15T01:44:43;7.60;;;2.65;;
85445;SDS011;75839;50.982;7.040;2024-02-15T01:47:14;5.00;;;2.20;;
85445;SDS011;75839;50.982;7.040;2024-02-15T01:49:41;8.77;;;2.50;;
85445;SDS011;75839;50.982;7.040;2024-02-15T01:52:07;8.05;;;2.40;;
85445;SDS011;75839;50.982;7.040;2024-02-15T01:54:34;6.68;;;2.40;;
85445;SDS011;75839;50.982;7.040;2024-02-15T01:57:02;8.23;;;2.28;;
85445;SDS011;75839;50.982;7.040;2024-02-15T01:59:28;5.03;;;2.03;;
85445;SDS011;75839;50.982;7.040;2024-02-15T02:01:54;5.95;;;2.38;;
85445;SDS011;75839;50.982;7.040;2024-02-15T02:04:20;3.65;;;2.10;;
85445;SDS011;75839;50.982;7.040;2024-02-15T02:06:46;4.63;;;2.42;;
85445;SDS011;75839;50.982;7.040;2024-02-15T02:09:11;7.72;;;2.72;;
85445;SDS011;75839;50.982;7.040;2024-02-15T02:11:38;6.00;;;2.53;;
85445;SDS011;75839;50.982;7.040;2024-02-15T02:14:05;7.35;;;2.25;;
85445;SDS011;75839;50.982;7.040;2024-02-15T02:16:31;6.30;;;2.22;;
85445;SDS011;75839;50.982;7.040;2024-02-15T02:18:57;8.20;;;2.38;;
85445;SDS011;75839;50.982;7.040;2024-02-15T02:21:23;7.60;;;3.30;;
85445;SDS011;75839;50.982;7.040;2024-02-15T02:23:52;5.35;;;2.40;;
85445;SDS011;75839;50.982;7.040;2024-02-15T02:26:20;5.40;;;2.65;;
85445;SDS011;75839;50.982;7.040;2024-02-15T02:33:37;6.45;;;2.40;;
85445;SDS011;75839;50.982;7.040;2024-02-15T02:36:03;5.53;;;2.30;;
85445;SDS011;75839;50.982;7.040;2024-02-15T02:38:32;6.18;;;2.38;;
85445;SDS011;75839;50.982;7.040;2024-02-15T02:40:58;6.18;;;2.30;;
85445;SDS011;75839;50.982;7.040;2024-02-15T02:43:25;5.10;;;1.98;;
85445;SDS011;75839;50.982;7.040;2024-02-15T02:45:50;5.55;;;2.72;;
85445;SDS011;75839;50.982;7.040;2024-02-15T02:48:16;5.63;;;2.22;;
85445;SDS011;75839;50.982;7.040;2024-02-15T02:50:43;3.85;;;2.25;;
85445;SDS011;75839;50.982;7.040;2024-02-15T02:53:09;7.32;;;2.55;;
85445;SDS011;75839;50.982;7.040;2024-02-15T02:55:36;7.50;;;2.60;;
85445;SDS011;75839;50.982;7.040;2024-02-15T02:58:01;5.00;;;2.05;;
85445;SDS011;75839;50.982;7.040;2024-02-15T03:00:29;4.72;;;2.17;;
85445;SDS011;75839;50.982;7.040;2024-02-15T03:02:54;5.60;;;2.28;;
85445;SDS011;75839;50.982;7.040;2024-02-15T03:05:21;10.57;;;2.85;;
85445;SDS011;75839;50.982;7.040;2024-02-15T03:07:47;8.02;;;3.03;;
85445;SDS011;75839;50.982;7.040;2024-02-15T03:10:13;4.85;;;2.30;;
85445;SDS011;75839;50.982;7.040;2024-02-15T03:12:40;4.65;;;2.58;;
85445;SDS011;75839;50.982;7.040;2024-02-15T03:15:08;7.53;;;2.50;;
85445;SDS011;75839;50.982;7.040;2024-02-15T03:17:37;6.43;;;2.55;;
85445;SDS011;75839;50.982;7.040;2024-02-15T03:20:04;4.45;;;2.33;;
85445;SDS011;75839;50.982;7.040;2024-02-15T03:22:36;6.32;;;2.40;;
85445;SDS011;75839;50.982;7.040;2024-02-15T03:25:03;3.97;;;2.05;;
85445;SDS011;75839;50.982;7.040;2024-02-15T03:27:32;5.40;;;2.50;;
85445;SDS011;75839;50.982;7.040;2024-02-15T03:29:58;6.07;;;2.80;;
85445;SDS011;75839;50.982;7.040;2024-02-15T03:32:25;5.22;;;2.28;;
85445;SDS011;75839;50.982;7.040;2024-02-15T03:34:52;3.47;;;2.20;;
85445;SDS011;75839;50.982;7.040;2024-02-15T03:37:19;7.45;;;2.80;;
85445;SDS011;75839;50.982;7.040;2024-02-15T03:39:46;7.90;;;2.83;;
85445;SDS011;75839;50.982;7.040;2024-02-15T03:42:12;6.72;;;2.92;;
85445;SDS011;75839;50.982;7.040;2024-02-15T03:44:37;3.88;;;2.10;;
85445;SDS011;75839;50.982;7.040;2024-02-15T03:47:03;8.60;;;2.78;;
85445;SDS011;75839;50.982;7.040;2024-02-15T03:49:30;6.15;;;2.20;;
85445;SDS011;75839;50.982;7.040;2024-02-15T03:51:58;4.80;;;2.78;;
85445;SDS011;75839;50.982;7.040;2024-02-15T03:54:26;4.85;;;2.28;;
85445;SDS011;75839;50.982;7.040;2024-02-15T03:56:52;6.15;;;2.22;;
85445;SDS011;75839;50.982;7.040;2024-02-15T03:59:18;5.38;;;2.28;;
85445;SDS011;75839;50.982;7.040;2024-02-15T04:01:46;3.97;;;2.25;;
85445;SDS011;75839;50.982;7.040;2024-02-15T04:04:12;4.50;;;2.30;;
85445;SDS011;75839;50.982;7.040;2024-02-15T04:06:38;8.15;;;3.03;;
85445;SDS011;75839;50.982;7.040;2024-02-15T04:09:08;8.18;;;2.83;;
85445;SDS011;75839;50.982;7.040;2024-02-15T04:11:33;4.68;;;3.65;;
85445;SDS011;75839;50.982;7.040;2024-02-15T04:13:59;4.90;;;3.05;;
85445;SDS011;75839;50.982;7.040;2024-02-15T04:16:24;6.22;;;2.42;;
85445;SDS011;75839;50.982;7.040;2024-02-15T04:18:51;7.05;;;2.60;;
85445;SDS011;75839;50.982;7.040;2024-02-15T04:21:16;7.10;;;3.05;;
85445;SDS011;75839;50.982;7.040;2024-02-15T04:23:44;7.80;;;3.55;;
85445;SDS011;75839;50.982;7.040;2024-02-15T04:26:11;9.52;;;3.08;;
85445;SDS011;75839;50.982;7.040;2024-02-15T04:28:38;7.75;;;2.53;;
85445;SDS011;75839;50.982;7.040;2024-02-15T04:31:04;4.68;;;2.45;;
85445;SDS011;75839;50.982;7.040;2024-02-15T04:33:33;5.28;;;2.40;;
85445;SDS011;75839;50.982;7.040;2024-02-15T04:35:58;5.07;;;2.40;;
85445;SDS011;75839;50.982;7.040;2024-02-15T04:38:27;5.25;;;2.50;;
85445;SDS011;75839;50.982;7.040;2024-02-15T04:40:53;6.45;;;2.25;;
85445;SDS011;75839;50.982;7.040;2024-02-15T04:43:21;7.85;;;3.28;;
85445;SDS011;75839;50.982;7.040;2024-02-15T04:45:47;5.85;;;2.45;;
85445;SDS011;75839;50.982;7.040;2024-02-15T04:48:13;4.93;;;2.47;;
85445;SDS011;75839;50.982;7.040;2024-02-15T04:50:39;4.22;;;2.03;;
85445;SDS011;75839;50.982;7.040;2024-02-15T04:53:08;5.57;;;2.25;;
85445;SDS011;75839;50.982;7.040;2024-02-15T04:55:33;5.70;;;2.58;;
85445;SDS011;75839;50.982;7.040;2024-02-15T04:58:00;4.13;;;1.88;;
85445;SDS011;75839;50.982;7.040;2024-02-15T05:00:27;8.23;;;2.17;;
85445;SDS011;75839;50.982;7.040;2024-02-15T05:05:19;8.27;;;2.33;;
85445;SDS011;75839;50.982;7.040;2024-02-15T05:07:45;8.30;;;2.40;;
85445;SDS011;75839;50.982;7.040;2024-02-15T05:10:10;6.13;;;2.00;;
85445;SDS011;75839;50.982;7.040;2024-02-15T05:12:37;5.20;;;2.13;;
85445;SDS011;75839;50.982;7.040;2024-02-15T05:15:05;6.10;;;2.50;;
85445;SDS011;75839;50.982;7.040;2024-02-15T05:17:37;6.90;;;2.30;;
85445;SDS011;75839;50.982;7.040;2024-02-15T05:20:06;8.05;;;2.63;;
85445;SDS011;75839;50.982;7.040;2024-02-15T05:22:36;9.65;;;2.22;;
85445;SDS011;75839;50.982;7.040;2024-02-15T05:27:30;4.40;;;2.00;;
85445;SDS011;75839;50.982;7.040;2024-02-15T05:29:56;4.65;;;1.75;;
85445;SDS011;75839;50.982;7.040;2024-02-15T05:32:21;5.90;;;2.58;;
85445;SDS011;75839;50.982;7.040;2024-02-15T05:34:48;7.00;;;3.15;;
85445;SDS011;75839;50.982;7.040;2024-02-15T05:37:14;10.15;;;3.88;;
85445;SDS011;75839;50.982;7.040;2024-02-15T05:39:40;6.35;;;2.30;;
85445;SDS011;75839;50.982;7.040;2024-02-15T05:42:06;6.25;;;2.28;;
85445;SDS011;75839;50.982;7.040;2024-02-15T05:44:32;5.40;;;2.28;;
85445;SDS011;75839;50.982;7.040;2024-02-15T05:47:00;6.03;;;2.45;;
85445;SDS011;75839;50.982;7.040;2024-02-15T05:49:25;6.55;;;2.47;;
85445;SDS011;75839;50.982;7.040;2024-02-15T05:51:52;5.93;;;2.20;;
85445;SDS011;75839;50.982;7.040;2024-02-15T05:54:21;6.00;;;2.28;;
85445;SDS011;75839;50.982;7.040;2024-02-15T05:56:50;4.43;;;2.10;;
85445;SDS011;75839;50.982;7.040;2024-02-15T05:59:19;7.43;;;2.92;;
85445;SDS011;75839;50.982;7.040;2024-02-15T06:01:45;5.50;;;2.45;;
85445;SDS011;75839;50.982;7.040;2024-02-15T06:04:14;13.98;;;2.75;;
85445;SDS011;75839;50.982;7.040;2024-02-15T06:06:39;6.45;;;2.45;;
85445;SDS011;75839;50.982;7.040;2024-02-15T06:09:06;9.18;;;2.58;;
85445;SDS011;75839;50.982;7.040;2024-02-15T06:11:32;7.93;;;2.47;;
85445;SDS011;75839;50.982;7.040;2024-02-15T06:13:57;7.70;;;2.85;;
85445;SDS011;75839;50.982;7.040;2024-02-15T06:16:23;4.22;;;2.50;;
85445;SDS011;75839;50.982;7.040;2024-02-15T06:18:49;6.35;;;2.22;;
85445;SDS011;75839;50.982;7.040;2024-02-15T06:21:15;4.05;;;2.30;;
85445;SDS011;75839;50.982;7.040;2024-02-15T06:23:40;8.02;;;2.00;;
85445;SDS011;75839;50.982;7.040;2024-02-15T06:26:07;7.22;;;2.33;;
85445;SDS011;75839;50.982;7.040;2024-02-15T06:28:33;7.22;;;2.30;;
85445;SDS011;75839;50.982;7.040;2024-02-15T06:31:17;5.88;;;2.22;;
85445;SDS011;75839;50.982;7.040;2024-02-15T06:34:01;6.10;;;2.20;;
85445;SDS011;75839;50.982;7.040;2024-02-15T06:36:46;7.30;;;2.08;;
85445;SDS011;75839;50.982;7.040;2024-02-15T06:39:30;5.30;;;2.20;;
85445;SDS011;75839;50.982;7.040;2024-02-15T06:42:13;5.97;;;2.20;;
85445;SDS011;75839;50.982;7.040;2024-02-15T06:44:45;3.97;;;2.30;;
85445;SDS011;75839;50.982;7.040;2024-02-15T06:47:12;7.38;;;3.38;;
85445;SDS011;75839;50.982;7.040;2024-02-15T06:49:38;5.13;;;1.92;;
85445;SDS011;75839;50.982;7.040;2024-02-15T06:52:06;4.78;;;2.30;;
85445;SDS011;75839;50.982;7.040;2024-02-15T06:54:32;8.73;;;2.40;;
85445;SDS011;75839;50.982;7.040;2024-02-15T06:56:59;6.32;;;2.70;;
85445;SDS011;75839;50.982;7.040;2024-02-15T06:59:26;14.35;;;3.28;;
85445;SDS011;75839;50.982;7.040;2024-02-15T07:01:51;14.60;;;3.78;;
85445;SDS011;75839;50.982;7.040;2024-02-15T07:04:17;8.43;;;3.92;;
85445;SDS011;75839;50.982;7.040;2024-02-15T07:06:43;6.63;;;2.42;;
85445;SDS011;75839;50.982;7.040;2024-02-15T07:09:13;8.38;;;3.25;;
85445;SDS011;75839;50.982;7.040;2024-02-15T07:11:40;7.18;;;2.50;;
85445;SDS011;75839;50.982;7.040;2024-02-15T07:14:05;9.23;;;3.28;;
85445;SDS011;75839;50.982;7.040;2024-02-15T07:16:34;7.70;;;3.65;;
85445;SDS011;75839;50.982;7.040;2024-02-15T07:18:59;9.02;;;3.20;;
85445;SDS011;75839;50.982;7.040;2024-02-15T07:21:25;5.65;;;2.95;;
85445;SDS011;75839;50.982;7.040;2024-02-15T07:23:54;7.35;;;2.65;;
85445;SDS011;75839;50.982;7.040;2024-02-15T07:26:20;8.57;;;2.88;;
85445;SDS011;75839;50.982;7.040;2024-02-15T07:28:49;6.25;;;3.22;;
85445;SDS011;75839;50.982;7.040;2024-02-15T07:31:17;9.68;;;3.40;;
85445;SDS011;75839;50.982;7.040;2024-02-15T07:33:44;7.88;;;4.03;;
85445;SDS011;75839;50.982;7.040;2024-02-15T07:36:10;6.88;;;3.28;;
85445;SDS011;75839;50.982;7.040;2024-02-15T07:38:35;10.70;;;3.72;;
85445;SDS011;75839;50.982;7.040;2024-02-15T07:41:01;8.45;;;3.30;;
85445;SDS011;75839;50.982;7.040;2024-02-15T07:43:27;12.27;;;3.75;;
85445;SDS011;75839;50.982;7.040;2024-02-15T07:45:52;8.88;;;2.83;;
85445;SDS011;75839;50.982;7.040;2024-02-15T07:48:18;7.90;;;3.03;;
85445;SDS011;75839;50.982;7.040;2024-02-15T07:50:45;10.57;;;3.10;;
85445;SDS011;75839;50.982;7.040;2024-02-15T07:53:10;15.35;;;3.80;;
85445;SDS011;75839;50.982;7.040;2024-02-15T07:55:37;9.27;;;3.67;;
85445;SDS011;75839;50.982;7.040;2024-02-15T07:58:03;8.95;;;3.17;;
85445;SDS011;75839;50.982;7.040;2024-02-15T08:00:30;9.15;;;3.72;;
85445;SDS011;75839;50.982;7.040;2024-02-15T08:02:55;7.30;;;2.88;;
85445;SDS011;75839;50.982;7.040;2024-02-15T08:05:22;6.65;;;2.80;;
85445;SDS011;75839;50.982;7.040;2024-02-15T08:07:49;8.35;;;3.35;;
85445;SDS011;75839;50.982;7.040;2024-02-15T08:10:15;8.18;;;3.63;;
85445;SDS011;75839;50.982;7.040;2024-02-15T08:12:41;4.72;;;2.25;;
85445;SDS011;75839;50.982;7.040;2024-02-15T08:15:08;7.25;;;2.90;;
85445;SDS011;75839;50.982;7.040;2024-02-15T08:17:40;9.30;;;3.63;;
85445;SDS011;75839;50.982;7.040;2024-02-15T08:20:07;8.65;;;3.33;;
85445;SDS011;75839;50.982;7.040;2024-02-15T08:22:34;7.20;;;3.38;;
85445;SDS011;75839;50.982;7.040;2024-02-15T08:25:01;14.07;;;3.70;;
85445;SDS011;75839;50.982;7.040;2024-02-15T08:27:30;8.30;;;3.05;;
85445;SDS011;75839;50.982;7.040;2024-02-15T08:32:23;5.00;;;2.63;;
85445;SDS011;75839;50.982;7.040;2024-02-15T08:34:49;6.40;;;3.17;;
85445;SDS011;75839;50.982;7.040;2024-02-15T08:37:15;9.25;;;3.10;;
85445;SDS011;75839;50.982;7.040;2024-02-15T08:39:41;7.32;;;3.45;;
85445;SDS011;75839;50.982;7.040;2024-02-15T08:42:11;7.10;;;2.70;;
85445;SDS011;75839;50.982;7.040;2024-02-15T08:44:36;7.60;;;3.38;;
85445;SDS011;75839;50.982;7.040;2024-02-15T08:47:02;8.50;;;3.40;;
85445;SDS011;75839;50.982;7.040;2024-02-15T08:49:30;5.15;;;1.80;;
85445;SDS011;75839;50.982;7.040;2024-02-15T08:51:57;5.65;;;2.67;;
85445;SDS011;75839;50.982;7.040;2024-02-15T08:54:24;7.43;;;2.85;;
85445;SDS011;75839;50.982;7.040;2024-02-15T08:56:51;8.43;;;3.00;;
85445;SDS011;75839;50.982;7.040;2024-02-15T08:59:18;8.25;;;2.53;;
85445;SDS011;75839;50.982;7.040;2024-02-15T09:01:44;6.22;;;2.40;;
85445;SDS011;75839;50.982;7.040;2024-02-15T09:04:11;14.43;;;2.92;;
85445;SDS011;75839;50.982;7.040;2024-02-15T09:06:38;8.93;;;3.17;;
85445;SDS011;75839;50.982;7.040;2024-02-15T09:09:03;9.35;;;3.00;;
85445;SDS011;75839;50.982;7.040;2024-02-15T09:11:29;6.38;;;2.58;;
85445;SDS011;75839;50.982;7.040;2024-02-15T09:13:55;5.03;;;2.63;;
85445;SDS011;75839;50.982;7.040;2024-02-15T09:16:21;5.50;;;3.15;;
85445;SDS011;75839;50.982;7.040;2024-02-15T09:18:47;7.65;;;2.92;;
85445;SDS011;75839;50.982;7.040;2024-02-15T09:21:13;5.60;;;2.65;;
85445;SDS011;75839;50.982;7.040;2024-02-15T09:23:39;4.82;;;2.40;;
85445;SDS011;75839;50.982;7.040;2024-02-15T09:26:04;5.57;;;2.28;;
85445;SDS011;75839;50.982;7.040;2024-02-15T09:28:30;4.88;;;2.65;;
85445;SDS011;75839;50.982;7.040;2024-02-15T09:30:56;5.90;;;2.35;;
85445;SDS011;75839;50.982;7.040;2024-02-15T09:33:25;5.93;;;1.98;;
85445;SDS011;75839;50.982;7.040;2024-02-15T09:35:51;6.30;;;2.17;;
85445;SDS011;75839;50.982;7.040;2024-02-15T09:38:17;8.05;;;2.13;;
85445;SDS011;75839;50.982;7.040;2024-02-15T09:40:44;7.65;;;2.60;;
85445;SDS011;75839;50.982;7.040;2024-02-15T09:43:14;7.80;;;2.25;;
85445;SDS011;75839;50.982;7.040;2024-02-15T09:45:41;6.03;;;2.15;;
85445;SDS011;75839;50.982;7.040;2024-02-15T09:48:07;5.03;;;2.00;;
85445;SDS011;75839;50.982;7.040;2024-02-15T09:50:37;7.75;;;1.95;;
85445;SDS011;75839;50.982;7.040;2024-02-15T09:53:05;8.45;;;2.83;;
85445;SDS011;75839;50.982;7.040;2024-02-15T09:55:33;6.15;;;2.13;;
85445;SDS011;75839;50.982;7.040;2024-02-15T09:57:59;5.47;;;2.65;;
85445;SDS011;75839;50.982;7.040;2024-02-15T10:00:25;5.57;;;2.17;;
85445;SDS011;75839;50.982;7.040;2024-02-15T10:02:50;9.32;;;2.60;;
85445;SDS011;75839;50.982;7.040;2024-02-15T10:05:21;3.60;;;2.10;;
85445;SDS011;75839;50.982;7.040;2024-02-15T10:07:49;6.82;;;2.42;;
85445;SDS011;75839;50.982;7.040;2024-02-15T10:10:15;7.63;;;1.90;;
85445;SDS011;75839;50.982;7.040;2024-02-15T10:15:26;6.18;;;2.20;;
85445;SDS011;75839;50.982;7.040;2024-02-15T10:17:53;11.95;;;2.80;;
85445;SDS011;75839;50.982;7.040;2024-02-15T10:20:19;9.70;;;2.28;;
85445;SDS011;75839;50.982;7.040;2024-02-15T10:22:45;5.43;;;1.80;;
85445;SDS011;75839;50.982;7.040;2024-02-15T10:25:12;4.65;;;1.80;;
85445;SDS011;75839;50.982;7.040;2024-02-15T10:27:38;4.13;;;1.98;;
85445;SDS011;75839;50.982;7.040;2024-02-15T10:30:13;5.65;;;1.85;;
85445;SDS011;75839;50.982;7.040;2024-02-15T10:32:40;7.93;;;2.03;;
85445;SDS011;75839;50.982;7.040;2024-02-15T10:35:06;2.85;;;1.75;;
85445;SDS011;75839;50.982;7.040;2024-02-15T10:37:32;5.63;;;1.83;;
85445;SDS011;75839;50.982;7.040;2024-02-15T10:40:03;5.82;;;2.03;;
85445;SDS011;75839;50.982;7.040;2024-02-15T10:42:32;5.07;;;1.80;;
85445;SDS011;75839;50.982;7.040;2024-02-15T10:44:59;6.63;;;1.77;;
85445;SDS011;75839;50.982;7.040;2024-02-15T10:47:26;6.65;;;1.70;;
85445;SDS011;75839;50.982;7.040;2024-02-15T10:49:53;6.60;;;2.08;;
85445;SDS011;75839;50.982;7.040;2024-02-15T10:52:18;6.03;;;1.67;;
85445;SDS011;75839;50.982;7.040;2024-02-15T10:54:46;10.45;;;1.98;;
85445;SDS011;75839;50.982;7.040;2024-02-15T10:57:13;5.03;;;1.90;;
85445;SDS011;75839;50.982;7.040;2024-02-15T10:59:43;4.32;;;1.40;;
85445;SDS011;75839;50.982;7.040;2024-02-15T11:02:23;3.53;;;1.70;;
85445;SDS011;75839;50.982;7.040;2024-02-15T11:04:53;4.47;;;1.73;;
85445;SDS011;75839;50.982;7.040;2024-02-15T11:07:23;3.90;;;1.60;;
85445;SDS011;75839;50.982;7.040;2024-02-15T11:09:49;9.85;;;1.85;;
85445;SDS011;75839;50.982;7.040;2024-02-15T11:12:16;5.30;;;1.80;;
85445;SDS011;75839;50.982;7.040;2024-02-15T11:14:45;4.05;;;1.40;;
85445;SDS011;75839;50.982;7.040;2024-02-15T11:17:11;6.60;;;1.95;;
85445;SDS011;75839;50.982;7.040;2024-02-15T11:22:11;6.32;;;1.58;;
85445;SDS011;75839;50.982;7.040;2024-02-15T11:24:45;5.25;;;2.00;;
85445;SDS011;75839;50.982;7.040;2024-02-15T11:27:12;8.35;;;1.45;;
85445;SDS011;75839;50.982;7.040;2024-02-15T11:29:51;3.70;;;1.50;;
85445;SDS011;75839;50.982;7.040;2024-02-15T11:32:35;7.28;;;2.25;;
85445;SDS011;75839;50.982;7.040;2024-02-15T11:35:05;3.05;;;1.48;;
85445;SDS011;75839;50.982;7.040;2024-02-15T11:37:50;4.75;;;1.75;;
85445;SDS011;75839;50.982;7.040;2024-02-15T11:40:20;7.93;;;2.00;;
85445;SDS011;75839;50.982;7.040;2024-02-15T11:42:48;4.13;;;1.33;;
85445;SDS011;75839;50.982;7.040;2024-02-15T11:45:16;4.63;;;1.40;;
85445;SDS011;75839;50.982;7.040;2024-02-15T11:47:46;5.80;;;1.83;;
85445;SDS011;75839;50.982;7.040;2024-02-15T11:50:15;4.65;;;1.45;;
85445;SDS011;75839;50.982;7.040;2024-02-15T11:52:42;5.88;;;1.77;;
85445;SDS011;75839;50.982;7.040;2024-02-15T11:55:09;6.80;;;1.92;;
85445;SDS011;75839;50.982;7.040;2024-02-15T11:57:41;4.13;;;1.52;;
85445;SDS011;75839;50.982;7.040;2024-02-15T12:00:24;5.68;;;1.90;;
85445;SDS011;75839;50.982;7.040;2024-02-15T12:03:08;2.83;;;1.50;;
85445;SDS011;75839;50.982;7.040;2024-02-15T12:05:52;3.88;;;1.50;;
85445;SDS011;75839;50.982;7.040;2024-02-15T12:08:37;5.20;;;1.77;;
85445;SDS011;75839;50.982;7.040;2024-02-15T12:11:22;5.22;;;1.65;;
85445;SDS011;75839;50.982;7.040;2024-02-15T12:14:06;5.07;;;1.80;;
85445;SDS011;75839;50.982;7.040;2024-02-15T12:17:04;7.25;;;2.00;;
85445;SDS011;75839;50.982;7.040;2024-02-15T12:19:49;5.05;;;1.75;;
85445;SDS011;75839;50.982;7.040;2024-02-15T12:22:16;3.83;;;1.40;;
85445;SDS011;75839;50.982;7.040;2024-02-15T12:24:45;3.92;;;1.48;;
85445;SDS011;75839;50.982;7.040;2024-02-15T12:27:18;5.45;;;1.55;;
85445;SDS011;75839;50.982;7.040;2024-02-15T12:29:45;6.03;;;1.50;;
85445;SDS011;75839;50.982;7.040;2024-02-15T12:32:20;5.65;;;1.35;;
85445;SDS011;75839;50.982;7.040;2024-02-15T12:34:46;3.30;;;1.45;;
85445;SDS011;75839;50.982;7.040;2024-02-15T12:37:12;3.03;;;1.40;;
85445;SDS011;75839;50.982;7.040;2024-02-15T12:39:38;6.63;;;1.50;;
85445;SDS011;75839;50.982;7.040;2024-02-15T12:42:06;3.40;;;1.50;;
85445;SDS011;75839;50.982;7.040;2024-02-15T12:44:32;4.82;;;1.40;;
85445;SDS011;75839;50.982;7.040;2024-02-15T12:46:59;10.07;;;1.77;;
85445;SDS011;75839;50.982;7.040;2024-02-15T12:49:30;5.75;;;1.80;;
85445;SDS011;75839;50.982;7.040;2024-02-15T12:55:05;7.85;;;1.92;;
85445;SDS011;75839;50.982;7.040;2024-02-15T12:57:33;6.75;;;1.65;;
85445;SDS011;75839;50.982;7.040;2024-02-15T12:59:59;4.97;;;1.45;;
85445;SDS011;75839;50.982;7.040;2024-02-15T13:02:25;4.07;;;1.67;;
85445;SDS011;75839;50.982;7.040;2024-02-15T13:04:52;4.82;;;1.73;;
85445;SDS011;75839;50.982;7.040;2024-02-15T13:07:22;4.43;;;1.40;;
85445;SDS011;75839;50.982;7.040;2024-02-15T13:09:48;3.58;;;1.80;;
85445;SDS011;75839;50.982;7.040;2024-02-15T13:12:14;5.38;;;1.67;;
85445;SDS011;75839;50.982;7.040;2024-02-15T13:14:40;3.05;;;1.50;;
85445;SDS011;75839;50.982;7.040;2024-02-15T13:17:05;4.65;;;1.55;;
85445;SDS011;75839;50.982;7.040;2024-02-15T13:19:31;5.13;;;2.10;;
85445;SDS011;75839;50.982;7.040;2024-02-15T13:22:02;3.53;;;1.60;;
85445;SDS011;75839;50.982;7.040;2024-02-15T13:24:28;4.40;;;1.50;;
85445;SDS011;75839;50.982;7.040;2024-02-15T13:26:54;4.43;;;1.70;;
85445;SDS011;75839;50.982;7.040;2024-02-15T13:29:21;5.40;;;1.48;;
85445;SDS011;75839;50.982;7.040;2024-02-15T13:31:48;4.25;;;1.77;;
85445;SDS011;75839;50.982;7.040;2024-02-15T13:34:16;3.25;;;1.75;;
85445;SDS011;75839;50.982;7.040;2024-02-15T13:36:41;5.93;;;1.65;;
85445;SDS011;75839;50.982;7.040;2024-02-15T13:39:09;9.88;;;1.77;;
85445;SDS011;75839;50.982;7.040;2024-02-15T13:41:34;6.15;;;2.00;;
85445;SDS011;75839;50.982;7.040;2024-02-15T13:44:00;3.67;;;1.52;;
85445;SDS011;75839;50.982;7.040;2024-02-15T13:46:25;3.85;;;1.60;;
85445;SDS011;75839;50.982;7.040;2024-02-15T13:48:51;2.05;;;1.13;;
85445;SDS011;75839;50.982;7.040;2024-02-15T13:51:17;2.47;;;1.40;;
85445;SDS011;75839;50.982;7.040;2024-02-15T13:53:42;3.35;;;1.42;;
85445;SDS011;75839;50.982;7.040;2024-02-15T13:56:09;4.40;;;1.58;;
85445;SDS011;75839;50.982;7.040;2024-02-15T13:58:35;4.57;;;1.60;;
85445;SDS011;75839;50.982;7.040;2024-02-15T14:01:01;4.05;;;1.52;;
85445;SDS011;75839;50.982;7.040;2024-02-15T14:03:29;2.70;;;1.33;;
85445;SDS011;75839;50.982;7.040;2024-02-15T14:05:55;6.32;;;1.50;;
85445;SDS011;75839;50.982;7.040;2024-02-15T14:08:21;4.88;;;1.50;;
85445;SDS011;75839;50.982;7.040;2024-02-15T14:10:47;2.75;;;1.40;;
85445;SDS011;75839;50.982;7.040;2024-02-15T14:13:14;5.10;;;1.73;;
85445;SDS011;75839;50.982;7.040;2024-02-15T14:15:40;3.97;;;1.50;;
85445;SDS011;75839;50.982;7.040;2024-02-15T14:18:06;3.95;;;1.23;;
85445;SDS011;75839;50.982;7.040;2024-02-15T14:20:32;10.30;;;1.90;;
85445;SDS011;75839;50.982;7.040;2024-02-15T14:22:57;4.90;;;1.33;;
85445;SDS011;75839;50.982;7.040;2024-02-15T14:25:23;4.65;;;1.50;;
85445;SDS011;75839;50.982;7.040;2024-02-15T14:27:50;4.72;;;1.25;;
85445;SDS011;75839;50.982;7.040;2024-02-15T14:30:18;4.60;;;1.33;;
85445;SDS011;75839;50.982;7.040;2024-02-15T14:33:02;6.15;;;1.58;;
85445;SDS011;75839;50.982;7.040;2024-02-15T14:35:29;5.38;;;1.67;;
85445;SDS011;75839;50.982;7.040;2024-02-15T14:37:55;5.38;;;1.70;;
85445;SDS011;75839;50.982;7.040;2024-02-15T14:40:23;2.90;;;1.58;;
85445;SDS011;75839;50.982;7.040;2024-02-15T14:42:49;3.78;;;1.10;;
85445;SDS011;75839;50.982;7.040;2024-02-15T14:45:14;5.43;;;1.65;;
85445;SDS011;75839;50.982;7.040;2024-02-15T14:47:41;6.32;;;1.40;;
85445;SDS011;75839;50.982;7.040;2024-02-15T14:50:08;5.85;;;1.13;;
85445;SDS011;75839;50.982;7.040;2024-02-15T14:52:34;4.47;;;1.13;;
85445;SDS011;75839;50.982;7.040;2024-02-15T14:55:02;6.13;;;1.73;;
85445;SDS011;75839;50.982;7.040;2024-02-15T14:57:30;2.95;;;1.10;;
85445;SDS011;75839;50.982;7.040;2024-02-15T14:59:56;2.85;;;1.20;;
85445;SDS011;75839;50.982;7.040;2024-02-15T15:02:22;4.53;;;1.45;;
85445;SDS011;75839;50.982;7.040;2024-02-15T15:04:49;7.60;;;1.55;;
85445;SDS011;75839;50.982;7.040;2024-02-15T15:07:33;3.35;;;1.42;;
85445;SDS011;75839;50.982;7.040;2024-02-15T15:10:17;6.82;;;1.40;;